Time;durP1;ratioP1;P1;durP2;ratioP2;P2;SDS_P1;SDS_P2;PMS_P1;PMS_P2;Temp;Humidity;BMP_temperature;BMP_pressure;BME280_temperature;BME280_humidity;BME280_pressure;Samples;Min_cycle;Max_cycle;Signal;HPM_P1;HPM_P2
2022/12/30 00:01:44;;;;;;;9.25;2.08;;;4.80;99.90;;;;;;7401462;19;19923;-68
2022/12/30 00:04:24;;;;;;;13.05;2.53;;;5.60;99.90;;;;;;7402491;19;19970;-69
2022/12/30 00:06:53;;;;;;;17.05;2.03;;;5.60;99.90;;;;;;7402818;19;20003;-68
2022/12/30 00:09:22;;;;;;;9.75;2.42;;;5.70;99.90;;;;;;7402124;19;20379;-68
2022/12/30 00:11:51;;;;;;;14.65;2.03;;;5.60;99.90;;;;;;7402579;19;20337;-68
2022/12/30 00:33:29;;;;;;;13.65;2.38;;;5.40;99.90;;;;;;7401482;19;19918;-68
2022/12/30 00:36:01;;;;;;;16.60;3.50;;;5.60;99.90;;;;;;7401379;19;19914;-69
2022/12/30 00:38:30;;;;;;;8.30;1.63;;;5.40;99.90;;;;;;7400508;19;19919;-69
2022/12/30 00:43:41;;;;;;;19.42;2.47;;;5.40;99.90;;;;;;7400994;19;19926;-67
2022/12/30 00:46:12;;;;;;;11.57;1.90;;;6.50;99.90;;;;;;7401617;19;20352;-67
2022/12/30 00:56:48;;;;;;;16.85;1.98;;;5.30;99.90;;;;;;7407565;19;19918;-68
2022/12/30 00:59:17;;;;;;;15.63;3.13;;;6.10;99.90;;;;;;7407856;19;19935;-67
2022/12/30 01:01:47;;;;;;;12.48;2.38;;;5.50;99.90;;;;;;7406523;19;19975;-68
2022/12/30 01:04:16;;;;;;;11.15;2.65;;;5.50;99.90;;;;;;7407692;19;20342;-68
2022/12/30 01:06:47;;;;;;;15.05;2.45;;;6.10;99.90;;;;;;7407638;19;19925;-68
2022/12/30 01:09:16;;;;;;;11.93;2.47;;;5.50;99.90;;;;;;7407524;19;20003;-67
2022/12/30 01:12:07;;;;;;;9.63;2.05;;;5.10;99.90;;;;;;7408046;19;20345;-67
2022/12/30 01:14:36;;;;;;;11.77;1.90;;;5.20;99.90;;;;;;7407822;19;19921;-68
2022/12/30 01:17:07;;;;;;;14.02;2.20;;;5.20;99.90;;;;;;7407832;19;19986;-67
2022/12/30 01:19:37;;;;;;;9.38;2.88;;;5.10;99.90;;;;;;7406924;19;19939;-67
2022/12/30 01:22:09;;;;;;;13.23;3.13;;;5.20;99.90;;;;;;7409426;19;19946;-68
2022/12/30 01:24:39;;;;;;;15.18;1.83;;;5.10;99.90;;;;;;7406886;19;19938;-68
2022/12/30 01:27:09;;;;;;;12.65;1.67;;;5.10;99.90;;;;;;7407416;19;19914;-68
2022/12/30 01:29:41;;;;;;;7.38;1.95;;;5.20;99.90;;;;;;7407104;19;19914;-68
2022/12/30 01:32:12;;;;;;;10.02;2.08;;;5.10;99.90;;;;;;7407518;19;19914;-68
2022/12/30 01:34:41;;;;;;;9.52;1.80;;;5.10;99.90;;;;;;7406299;19;19915;-68
2022/12/30 01:37:14;;;;;;;13.30;2.60;;;6.30;99.90;;;;;;7406809;19;19917;-68
2022/12/30 01:39:48;;;;;;;9.43;1.98;;;6.20;99.90;;;;;;7406509;19;19914;-67
2022/12/30 01:42:20;;;;;;;11.30;2.15;;;5.10;99.90;;;;;;7405324;19;20273;-67
2022/12/30 01:44:59;;;;;;;11.43;2.17;;;5.30;99.90;;;;;;7404827;19;19919;-67
2022/12/30 01:47:37;;;;;;;9.82;2.05;;;5.30;99.90;;;;;;7406698;19;19918;-68
2022/12/30 01:50:17;;;;;;;11.82;1.90;;;5.10;99.90;;;;;;7406528;19;19932;-67
2022/12/30 01:52:53;;;;;;;7.35;1.70;;;5.10;99.90;;;;;;7410459;19;19925;-67
2022/12/30 01:55:26;;;;;;;8.63;1.85;;;5.50;99.90;;;;;;7406504;19;20297;-67
2022/12/30 01:57:59;;;;;;;12.70;2.15;;;6.20;99.90;;;;;;7406509;19;19918;-67
2022/12/30 02:00:28;;;;;;;9.70;2.35;;;5.10;99.90;;;;;;7406380;19;19914;-67
2022/12/30 02:02:58;;;;;;;9.52;1.88;;;5.00;99.90;;;;;;7403075;19;20008;-67
2022/12/30 02:05:39;;;;;;;16.85;3.22;;;5.20;99.90;;;;;;7405744;19;20345;-67
2022/12/30 02:08:14;;;;;;;13.90;2.22;;;6.00;99.90;;;;;;7406142;19;20311;-68
2022/12/30 02:10:47;;;;;;;10.95;1.92;;;5.10;99.90;;;;;;7406545;19;19915;-67
2022/12/30 02:13:18;;;;;;;12.85;3.13;;;5.10;99.90;;;;;;7405901;19;19914;-67
2022/12/30 02:16:32;;;;;;;12.48;2.45;;;5.20;99.90;;;;;;7405891;19;19919;-67
2022/12/30 02:19:32;;;;;;;8.75;2.13;;;5.10;99.90;;;;;;7403886;19;19982;-67
2022/12/30 02:22:11;;;;;;;8.57;2.13;;;5.10;99.90;;;;;;7404729;19;19910;-67
2022/12/30 02:25:18;;;;;;;13.88;1.85;;;5.20;99.90;;;;;;7406461;19;19914;-67
2022/12/30 02:28:27;;;;;;;10.35;1.73;;;5.00;99.90;;;;;;7406139;19;19919;-67
2022/12/30 02:31:20;;;;;;;8.75;1.77;;;5.10;99.90;;;;;;7405403;19;19918;-67
2022/12/30 02:34:02;;;;;;;14.77;1.98;;;5.00;99.90;;;;;;7405447;19;19926;-67
2022/12/30 02:36:38;;;;;;;12.27;1.77;;;5.00;99.90;;;;;;7405847;19;19982;-67
2022/12/30 02:39:18;;;;;;;10.93;2.03;;;5.60;99.90;;;;;;7404040;19;20248;-67
2022/12/30 02:44:40;;;;;;;11.35;2.17;;;5.90;99.90;;;;;;7404233;19;20939;-67
2022/12/30 02:47:20;;;;;;;11.55;1.67;;;5.90;99.90;;;;;;7405144;19;19966;-67
2022/12/30 02:52:14;;;;;;;11.48;2.00;;;5.00;99.90;;;;;;7405622;19;19918;-66
2022/12/30 02:52:40;;;;;;;14.43;2.38;;;4.80;99.90;;;;;;7404842;19;19914;-67
2022/12/30 02:55:10;;;;;;;7.00;1.85;;;5.10;99.90;;;;;;7405085;19;20331;-67
2022/12/30 02:57:39;;;;;;;11.25;1.70;;;4.90;99.90;;;;;;7404340;19;19914;-67
2022/12/30 03:06:28;;;;;;;13.23;2.15;;;5.70;99.90;;;;;;7405832;19;19918;-67
2022/12/30 03:09:14;;;;;;;7.72;1.48;;;4.80;99.90;;;;;;7405398;19;19950;-66
2022/12/30 03:11:50;;;;;;;10.90;2.92;;;4.80;99.90;;;;;;7404613;19;19962;-67
2022/12/30 03:14:26;;;;;;;10.73;1.88;;;4.80;99.90;;;;;;7403276;19;19918;-67
2022/12/30 03:17:00;;;;;;;10.25;1.42;;;4.60;99.90;;;;;;7403023;19;19926;-67
2022/12/30 03:19:40;;;;;;;9.13;1.50;;;4.60;99.90;;;;;;7406298;19;20322;-67
2022/12/30 03:27:03;;;;;;;7.78;2.03;;;5.50;99.90;;;;;;7404055;19;20590;-67
2022/12/30 03:27:46;;;;;;;7.78;2.10;;;4.90;99.90;;;;;;7404059;19;19919;-67
2022/12/30 03:30:17;;;;;;;14.25;1.83;;;4.40;99.90;;;;;;7404418;19;19931;-68
2022/12/30 03:32:46;;;;;;;7.85;1.65;;;4.40;99.90;;;;;;7403412;19;19914;-68
2022/12/30 03:35:19;;;;;;;13.43;3.33;;;5.30;99.90;;;;;;7403753;19;19928;-67
2022/12/30 03:37:52;;;;;;;17.52;2.38;;;4.20;99.90;;;;;;7402787;19;19926;-67
2022/12/30 03:40:27;;;;;;;11.68;2.05;;;4.80;99.90;;;;;;7403833;19;20240;-67
2022/12/30 03:42:57;;;;;;;13.77;1.98;;;5.00;99.90;;;;;;7402154;19;19926;-67
2022/12/30 03:45:26;;;;;;;14.23;1.70;;;4.30;99.90;;;;;;7402711;19;19914;-67
2022/12/30 03:47:56;;;;;;;12.98;1.75;;;5.00;99.90;;;;;;7403409;19;19950;-67
2022/12/30 03:50:28;;;;;;;16.77;3.08;;;4.90;99.90;;;;;;7403908;19;19922;-67
2022/12/30 03:52:57;;;;;;;11.30;1.90;;;4.40;99.90;;;;;;7403370;19;19942;-67
2022/12/30 03:55:26;;;;;;;12.98;1.63;;;4.30;99.90;;;;;;7403303;19;20341;-67
2022/12/30 03:57:55;;;;;;;13.15;2.75;;;4.20;99.90;;;;;;7403166;19;19915;-67
2022/12/30 04:00:24;;;;;;;13.63;2.88;;;4.20;99.90;;;;;;7403074;19;19938;-68
2022/12/30 04:02:53;;;;;;;7.80;1.50;;;4.20;99.90;;;;;;7401581;19;20300;-67
2022/12/30 04:05:22;;;;;;;15.98;3.10;;;4.20;99.90;;;;;;7403108;19;19915;-67
2022/12/30 04:07:54;;;;;;;10.40;2.00;;;3.40;99.90;;;;;;7402655;19;19928;-68
2022/12/30 04:10:23;;;;;;;9.30;2.47;;;4.10;99.90;;;;;;7403003;19;20252;-67
2022/12/30 04:12:51;;;;;;;9.55;1.63;;;4.10;99.90;;;;;;7402226;19;19986;-68
2022/12/30 04:15:20;;;;;;;11.30;1.80;;;4.30;99.90;;;;;;7402679;19;19940;-68
2022/12/30 04:17:49;;;;;;;11.55;1.83;;;4.00;99.90;;;;;;7403453;19;19986;-67
2022/12/30 04:20:19;;;;;;;7.32;1.58;;;4.00;99.90;;;;;;7402727;19;19910;-67
2022/12/30 04:22:47;;;;;;;7.25;1.60;;;4.00;99.90;;;;;;7401700;19;20261;-67
2022/12/30 04:25:19;;;;;;;11.93;2.22;;;4.80;99.90;;;;;;7402101;19;19922;-67
2022/12/30 04:27:48;;;;;;;5.97;1.67;;;3.90;99.90;;;;;;7407351;19;19919;-67
2022/12/30 04:30:17;;;;;;;15.52;2.15;;;4.10;99.90;;;;;;7408708;19;20007;-68
2022/12/30 04:32:46;;;;;;;9.90;2.15;;;3.90;99.90;;;;;;7406777;19;19922;-68
2022/12/30 04:35:15;;;;;;;10.95;2.25;;;4.90;99.90;;;;;;7408528;19;20460;-67
2022/12/30 04:37:44;;;;;;;9.65;2.35;;;3.90;99.90;;;;;;7408321;19;19946;-68
2022/12/30 04:40:13;;;;;;;9.55;1.75;;;4.70;99.90;;;;;;7408257;19;19915;-68
2022/12/30 04:42:45;;;;;;;16.58;2.85;;;3.80;99.90;;;;;;7407224;19;19925;-68
2022/12/30 04:45:14;;;;;;;10.05;2.70;;;3.60;99.90;;;;;;7406016;19;20356;-67
2022/12/30 04:47:43;;;;;;;11.85;2.70;;;3.90;99.90;;;;;;7410627;19;19929;-67
2022/12/30 04:50:13;;;;;;;10.63;2.30;;;3.90;99.90;;;;;;7408014;19;19922;-67
2022/12/30 04:52:42;;;;;;;10.98;3.22;;;3.90;99.90;;;;;;7408301;19;20256;-67
2022/12/30 04:55:11;;;;;;;11.25;2.92;;;4.00;99.90;;;;;;7407988;19;20232;-68
2022/12/30 04:57:40;;;;;;;13.63;2.67;;;3.90;99.90;;;;;;7408114;19;19931;-67
2022/12/30 05:00:14;;;;;;;8.88;2.20;;;4.10;99.90;;;;;;7407992;19;19918;-67
2022/12/30 05:02:45;;;;;;;14.18;2.58;;;3.90;99.90;;;;;;7406880;19;19918;-67
2022/12/30 05:05:14;;;;;;;9.90;2.60;;;4.00;99.90;;;;;;7407773;19;20268;-67
2022/12/30 05:07:43;;;;;;;5.80;1.52;;;4.00;99.90;;;;;;7407931;19;19978;-67
2022/12/30 05:10:12;;;;;;;9.10;2.20;;;4.00;99.90;;;;;;7407838;19;19919;-67
2022/12/30 05:12:41;;;;;;;8.65;2.20;;;5.00;99.90;;;;;;7407539;19;20248;-67
2022/12/30 05:15:14;;;;;;;11.43;2.25;;;3.90;99.90;;;;;;7406888;19;19921;-67
2022/12/30 05:17:43;;;;;;;10.02;1.95;;;3.80;99.90;;;;;;7410400;19;19923;-67
2022/12/30 05:20:12;;;;;;;12.55;1.98;;;3.60;99.90;;;;;;7407182;19;19925;-68
2022/12/30 05:22:41;;;;;;;9.65;1.83;;;3.70;99.90;;;;;;7406917;19;19926;-68
2022/12/30 05:27:53;;;;;;;7.72;1.70;;;3.80;99.90;;;;;;7407191;19;19929;-67
2022/12/30 05:30:25;;;;;;;8.98;2.13;;;3.80;99.90;;;;;;7407348;19;19918;-67
2022/12/30 05:32:54;;;;;;;10.85;1.98;;;3.90;99.90;;;;;;7406728;19;19925;-67
2022/12/30 05:35:23;;;;;;;5.55;1.33;;;3.70;99.90;;;;;;7407024;19;19910;-68
2022/12/30 05:37:52;;;;;;;9.63;2.13;;;3.90;99.90;;;;;;7404721;19;19926;-67
2022/12/30 05:40:22;;;;;;;6.63;1.98;;;3.70;99.90;;;;;;7406747;19;20376;-67
2022/12/30 05:42:51;;;;;;;10.65;2.20;;;3.50;99.90;;;;;;7406047;19;20008;-67
2022/12/30 05:45:20;;;;;;;8.68;2.50;;;3.70;99.90;;;;;;7405425;19;19935;-68
2022/12/30 05:47:52;;;;;;;6.10;1.98;;;3.80;99.90;;;;;;7408743;19;19925;-67
2022/12/30 05:50:22;;;;;;;10.40;2.00;;;4.20;99.90;;;;;;7406424;19;19919;-68
2022/12/30 05:52:50;;;;;;;4.82;2.15;;;2.70;99.90;;;;;;7406897;19;19915;-67
2022/12/30 05:55:19;;;;;;;10.43;2.42;;;3.00;99.90;;;;;;7406251;19;19960;-67
2022/12/30 05:57:48;;;;;;;11.23;2.90;;;4.60;99.90;;;;;;7406221;19;19921;-68
2022/12/30 06:00:18;;;;;;;7.25;1.80;;;3.50;99.90;;;;;;7406010;19;19931;-68
2022/12/30 06:02:53;;;;;;;4.97;1.67;;;3.70;99.90;;;;;;7405703;19;19931;-68
2022/12/30 06:05:22;;;;;;;7.18;1.80;;;3.90;99.90;;;;;;7406016;19;19922;-67
2022/12/30 06:07:51;;;;;;;9.55;1.65;;;3.70;99.90;;;;;;7406572;19;19918;-67
2022/12/30 06:10:20;;;;;;;12.70;2.15;;;3.60;99.90;;;;;;7406197;19;19910;-67
2022/12/30 06:12:49;;;;;;;8.70;2.33;;;4.40;99.90;;;;;;7406320;19;19922;-68
2022/12/30 06:15:19;;;;;;;10.00;1.92;;;4.00;99.90;;;;;;7407219;19;19923;-67
2022/12/30 06:17:48;;;;;;;4.00;1.58;;;3.50;99.90;;;;;;7406207;19;19978;-68
2022/12/30 06:20:19;;;;;;;6.40;1.73;;;3.90;99.90;;;;;;7403907;19;20343;-67
2022/12/30 06:22:48;;;;;;;6.20;1.48;;;2.70;99.90;;;;;;7405454;19;19911;-67
2022/12/30 06:25:17;;;;;;;8.45;1.60;;;2.60;99.90;;;;;;7405504;19;19982;-67
2022/12/30 06:27:46;;;;;;;13.48;1.83;;;3.60;99.90;;;;;;7405593;19;19922;-67
2022/12/30 06:30:16;;;;;;;4.97;1.58;;;4.60;99.90;;;;;;7405248;19;19919;-67
2022/12/30 06:32:46;;;;;;;7.63;1.83;;;3.50;99.90;;;;;;7405386;19;19932;-67
2022/12/30 06:35:15;;;;;;;9.13;2.05;;;3.60;99.90;;;;;;7403915;19;19922;-68
2022/12/30 06:37:47;;;;;;;10.48;1.73;;;3.40;99.90;;;;;;7405172;19;20368;-67
2022/12/30 06:40:16;;;;;;;4.13;1.27;;;3.80;99.90;;;;;;7406295;19;19970;-68
2022/12/30 06:42:52;;;;;;;9.20;1.63;;;4.10;99.90;;;;;;7404533;19;20262;-68
2022/12/30 06:45:21;;;;;;;7.20;1.77;;;3.40;99.90;;;;;;7403991;19;20282;-68
2022/12/30 06:47:50;;;;;;;8.63;1.60;;;3.50;99.90;;;;;;7404818;19;19918;-68
2022/12/30 06:50:19;;;;;;;9.35;1.77;;;4.20;99.90;;;;;;7404812;19;19914;-68
2022/12/30 06:52:52;;;;;;;10.63;2.28;;;3.50;99.90;;;;;;7405188;19;19922;-68
2022/12/30 06:55:21;;;;;;;7.03;1.70;;;4.10;99.90;;;;;;7404734;19;20350;-68
2022/12/30 06:57:51;;;;;;;3.78;1.45;;;4.50;99.90;;;;;;7404863;19;19919;-68
2022/12/30 07:00:22;;;;;;;8.40;1.80;;;3.50;99.90;;;;;;7404998;19;19919;-68
2022/12/30 07:02:51;;;;;;;8.20;1.73;;;2.50;99.90;;;;;;7404376;19;19911;-68
2022/12/30 07:05:20;;;;;;;9.02;1.83;;;3.50;99.90;;;;;;7404320;19;20044;-68
2022/12/30 07:07:51;;;;;;;10.63;1.70;;;3.50;99.90;;;;;;7404215;19;20504;-67
2022/12/30 07:10:21;;;;;;;6.78;1.73;;;3.40;99.90;;;;;;7404703;19;19923;-68
2022/12/30 07:12:55;;;;;;;4.80;1.38;;;3.10;99.90;;;;;;7404393;19;20268;-68
2022/12/30 07:15:24;;;;;;;7.05;2.03;;;3.60;99.90;;;;;;7405326;19;19942;-68
2022/12/30 07:17:53;;;;;;;9.65;1.70;;;4.40;99.90;;;;;;7404358;19;19915;-68
2022/12/30 07:20:32;;;;;;;7.07;1.40;;;2.40;99.90;;;;;;7404215;19;20456;-68
2022/12/30 07:23:04;;;;;;;10.25;2.25;;;3.10;99.90;;;;;;7403901;19;19935;-68
2022/12/30 07:25:35;;;;;;;6.20;1.60;;;3.30;99.90;;;;;;7404093;19;19997;-68
2022/12/30 07:28:05;;;;;;;11.85;1.50;;;3.60;99.90;;;;;;7403875;19;19933;-68
2022/12/30 07:30:35;;;;;;;11.00;1.73;;;3.50;99.90;;;;;;7404038;19;19910;-68
2022/12/30 07:33:04;;;;;;;7.05;1.25;;;4.40;99.90;;;;;;7403506;19;20316;-68
2022/12/30 07:35:33;;;;;;;8.57;1.88;;;3.20;99.90;;;;;;7403692;19;20320;-68
2022/12/30 07:38:05;;;;;;;6.13;1.73;;;4.00;99.90;;;;;;7403132;19;19926;-68
2022/12/30 07:40:40;;;;;;;9.13;1.70;;;4.00;99.90;;;;;;7403854;19;19939;-68
2022/12/30 07:43:09;;;;;;;7.60;1.20;;;3.50;99.90;;;;;;7403043;19;19911;-68
2022/12/30 07:45:39;;;;;;;9.82;2.28;;;3.50;99.90;;;;;;7404545;19;19922;-67
2022/12/30 07:48:08;;;;;;;10.13;1.92;;;4.10;99.90;;;;;;7403053;19;19915;-68
2022/12/30 07:50:37;;;;;;;11.27;1.52;;;3.50;99.90;;;;;;7402938;19;19966;-68
2022/12/30 07:53:10;;;;;;;8.25;1.35;;;3.40;99.90;;;;;;7402526;19;20351;-68
2022/12/30 07:55:41;;;;;;;6.63;2.40;;;4.00;99.90;;;;;;7402707;19;20249;-68
2022/12/30 07:58:11;;;;;;;9.05;2.05;;;3.10;99.90;;;;;;7402024;19;19932;-67
2022/12/30 08:00:40;;;;;;;7.95;2.08;;;3.60;99.90;;;;;;7402367;19;19930;-68
2022/12/30 08:03:09;;;;;;;7.82;1.67;;;3.30;99.90;;;;;;7407770;19;20255;-68
2022/12/30 08:05:38;;;;;;;12.35;2.85;;;3.40;99.90;;;;;;7410079;19;19932;-67
2022/12/30 08:08:10;;;;;;;3.13;1.10;;;2.40;99.90;;;;;;7409073;19;19922;-68
2022/12/30 08:10:56;;;;;;;10.27;1.70;;;4.20;99.90;;;;;;7409624;19;19969;-68
2022/12/30 08:13:25;;;;;;;10.40;1.38;;;4.10;99.90;;;;;;7409237;19;19954;-68
2022/12/30 08:15:54;;;;;;;6.05;2.38;;;3.40;99.90;;;;;;7413703;19;20332;-68
2022/12/30 08:18:24;;;;;;;7.80;1.30;;;3.50;99.90;;;;;;7409304;19;20253;-68
2022/12/30 08:20:55;;;;;;;3.95;1.05;;;3.80;99.90;;;;;;7409091;19;20336;-68
2022/12/30 08:23:27;;;;;;;5.55;1.60;;;3.90;99.90;;;;;;7408641;19;19918;-68
2022/12/30 08:25:56;;;;;;;5.47;1.27;;;3.50;99.90;;;;;;7408805;19;20387;-68
2022/12/30 08:28:25;;;;;;;6.22;1.48;;;3.40;99.90;;;;;;7408706;19;19938;-68
2022/12/30 08:30:54;;;;;;;6.97;1.73;;;3.50;99.90;;;;;;7408886;19;19922;-68
2022/12/30 08:33:23;;;;;;;9.07;2.03;;;3.10;99.90;;;;;;7408238;19;19939;-68
2022/12/30 08:35:52;;;;;;;8.02;1.60;;;3.60;99.90;;;;;;7409150;19;19922;-67
2022/12/30 08:38:22;;;;;;;6.65;1.63;;;4.20;99.90;;;;;;7407555;19;19922;-67
2022/12/30 08:40:54;;;;;;;8.60;1.60;;;4.70;99.90;;;;;;7408761;19;19915;-67
2022/12/30 08:43:26;;;;;;;7.93;1.77;;;4.70;99.90;;;;;;7405348;19;19927;-68
2022/12/30 08:45:59;;;;;;;11.88;1.60;;;3.90;99.90;;;;;;7411058;19;19918;-68
2022/12/30 08:48:28;;;;;;;7.80;1.55;;;3.80;99.90;;;;;;7408730;19;19914;-68
2022/12/30 08:50:57;;;;;;;9.45;1.67;;;3.70;99.90;;;;;;7409105;19;19954;-67
2022/12/30 08:53:27;;;;;;;6.10;1.75;;;3.20;99.90;;;;;;7408891;19;19926;-68
2022/12/30 08:56:07;;;;;;;13.77;2.20;;;3.60;99.90;;;;;;7408197;19;19946;-68
2022/12/30 08:58:40;;;;;;;8.15;1.85;;;3.70;99.90;;;;;;7408405;19;20309;-68
2022/12/30 09:01:20;;;;;;;8.95;1.95;;;4.30;99.90;;;;;;7408367;19;19938;-68
2022/12/30 09:03:51;;;;;;;7.95;1.48;;;3.10;99.90;;;;;;7406785;19;20084;-68
2022/12/30 09:06:22;;;;;;;10.57;2.50;;;4.60;99.90;;;;;;7407971;19;19948;-68
2022/12/30 09:08:51;;;;;;;8.77;1.55;;;4.10;99.90;;;;;;7408114;19;19925;-68
2022/12/30 09:11:34;;;;;;;4.30;1.33;;;3.80;99.90;;;;;;7408254;19;19918;-68
2022/12/30 09:14:05;;;;;;;7.90;1.50;;;3.80;99.90;;;;;;7411088;19;19938;-68
2022/12/30 09:16:35;;;;;;;8.27;1.45;;;3.80;99.90;;;;;;7407531;19;19919;-68
2022/12/30 09:19:05;;;;;;;8.60;1.80;;;3.80;99.90;;;;;;7407020;19;19915;-68
2022/12/30 09:21:34;;;;;;;5.68;1.73;;;3.80;99.90;;;;;;7407105;19;19914;-68
2022/12/30 09:24:03;;;;;;;9.32;2.42;;;3.30;99.90;;;;;;7405904;19;19915;-67
2022/12/30 09:26:34;;;;;;;8.65;2.00;;;3.90;99.90;;;;;;7406921;19;19914;-68
2022/12/30 09:29:04;;;;;;;7.53;2.03;;;4.00;99.90;;;;;;7407269;19;19932;-68
2022/12/30 09:31:33;;;;;;;13.07;2.85;;;4.10;99.90;;;;;;7407266;19;19915;-68
2022/12/30 09:34:04;;;;;;;9.15;1.65;;;4.10;99.90;;;;;;7406681;19;20337;-67
2022/12/30 09:36:33;;;;;;;8.38;1.95;;;3.10;99.90;;;;;;7407129;19;19919;-68
2022/12/30 09:39:02;;;;;;;8.77;1.73;;;4.00;99.90;;;;;;7403590;19;19914;-68
2022/12/30 09:44:38;;;;;;;5.60;1.50;;;4.90;99.90;;;;;;7407568;19;20281;-68
2022/12/30 09:47:16;;;;;;;10.45;1.77;;;4.30;99.90;;;;;;7406866;19;19919;-68
2022/12/30 09:49:49;;;;;;;8.23;2.35;;;4.30;99.90;;;;;;7406344;19;19915;-68
2022/12/30 09:52:24;;;;;;;9.50;1.90;;;4.30;99.90;;;;;;7406561;19;19919;-68
2022/12/30 09:55:00;;;;;;;7.13;2.40;;;4.30;99.90;;;;;;7406380;19;20384;-68
2022/12/30 09:57:35;;;;;;;4.78;1.45;;;4.60;99.90;;;;;;7406224;19;19910;-68
2022/12/30 10:00:08;;;;;;;9.35;2.20;;;5.10;99.90;;;;;;7406385;19;19910;-68
2022/12/30 10:02:51;;;;;;;7.25;1.80;;;4.30;99.90;;;;;;7405706;19;19917;-68
2022/12/30 10:05:31;;;;;;;8.10;1.33;;;4.40;99.90;;;;;;7404826;19;19918;-68
2022/12/30 10:08:10;;;;;;;6.55;1.73;;;4.50;99.90;;;;;;7406075;19;19970;-68
2022/12/30 10:10:44;;;;;;;5.85;1.98;;;4.60;99.90;;;;;;7405750;19;19924;-68
2022/12/30 10:13:20;;;;;;;11.27;1.73;;;4.60;99.90;;;;;;7409208;19;19928;-67
2022/12/30 10:15:56;;;;;;;5.65;1.67;;;4.60;99.90;;;;;;7406071;19;19939;-68
2022/12/30 10:18:49;;;;;;;8.77;1.60;;;5.60;99.90;;;;;;7406097;19;20336;-68
2022/12/30 10:21:28;;;;;;;7.85;1.95;;;4.40;99.90;;;;;;7405203;19;20352;-68
2022/12/30 10:24:24;;;;;;;6.82;1.30;;;4.60;99.90;;;;;;7404131;19;19921;-68
2022/12/30 10:26:54;;;;;;;7.50;1.48;;;4.80;99.90;;;;;;7405781;19;19934;-68
2022/12/30 10:29:31;;;;;;;3.95;0.90;;;5.00;99.90;;;;;;7404387;19;20253;-68
2022/12/30 10:32:04;;;;;;;9.48;2.83;;;4.90;99.90;;;;;;7403454;19;19945;-68
2022/12/30 10:34:33;;;;;;;6.00;2.10;;;4.90;99.90;;;;;;7405542;19;19934;-68
2022/12/30 10:37:05;;;;;;;6.57;1.77;;;4.90;99.90;;;;;;7405096;19;19922;-68
2022/12/30 10:39:37;;;;;;;8.32;1.92;;;5.80;99.90;;;;;;7403739;19;19915;-68
2022/12/30 10:42:19;;;;;;;4.90;1.35;;;4.90;99.90;;;;;;7405526;19;19981;-68
2022/12/30 10:45:00;;;;;;;6.05;1.33;;;5.00;99.90;;;;;;7403586;19;20262;-68
2022/12/30 10:47:44;;;;;;;6.47;1.65;;;5.10;99.90;;;;;;7404671;19;20341;-68
2022/12/30 10:50:23;;;;;;;6.10;1.73;;;5.30;99.90;;;;;;7405103;19;20003;-68
2022/12/30 10:52:52;;;;;;;7.43;1.33;;;5.50;99.90;;;;;;7404434;19;19911;-68
2022/12/30 10:55:25;;;;;;;7.35;1.65;;;5.20;99.90;;;;;;7404690;19;19915;-68
2022/12/30 10:57:57;;;;;;;;;;;5.20;99.90;;;;;;7407289;19;19925;-67
2022/12/30 11:00:29;;;;;;;8.68;1.50;;;6.10;99.90;;;;;;7404782;19;19935;-68
2022/12/30 11:03:01;;;;;;;6.90;1.40;;;5.20;99.90;;;;;;7403670;19;20337;-67
2022/12/30 11:05:33;;;;;;;4.47;1.20;;;5.40;99.90;;;;;;7403098;19;19915;-68
2022/12/30 11:08:03;;;;;;;8.38;1.52;;;5.40;99.90;;;;;;7404378;19;19925;-68
2022/12/30 11:10:33;;;;;;;4.78;1.60;;;5.50;99.90;;;;;;7402561;19;19925;-67
2022/12/30 11:16:01;;;;;;;5.22;1.17;;;5.60;99.90;;;;;;7404294;19;19923;-67
2022/12/30 11:18:30;;;;;;;;;;;6.50;99.90;;;;;;7406672;19;19918;-68
2022/12/30 11:21:01;;;;;;;8.13;2.00;;;5.70;99.90;;;;;;7404055;19;19919;-67
2022/12/30 11:23:34;;;;;;;8.25;1.38;;;5.70;99.90;;;;;;7404014;19;20359;-68
2022/12/30 11:26:05;;;;;;;9.10;1.48;;;5.70;99.90;;;;;;7402259;19;20388;-67
2022/12/30 11:28:38;;;;;;;4.53;1.52;;;5.80;99.90;;;;;;7403030;19;19931;-68
2022/12/30 11:31:11;;;;;;;7.30;1.10;;;5.60;99.90;;;;;;7403896;19;20260;-68
2022/12/30 11:33:47;;;;;;;4.82;1.15;;;5.70;99.90;;;;;;7403701;19;20667;-66
2022/12/30 11:36:23;;;;;;;6.63;1.55;;;6.40;99.90;;;;;;7400358;19;19925;-68
2022/12/30 11:38:53;;;;;;;4.18;1.27;;;5.70;99.90;;;;;;7400847;19;19986;-68
2022/12/30 11:41:24;;;;;;;4.38;1.55;;;5.70;99.90;;;;;;7405550;19;20258;-67
2022/12/30 11:44:07;;;;;;;6.30;1.45;;;5.70;99.90;;;;;;7402888;19;19914;-67
2022/12/30 11:46:43;;;;;;;3.35;1.10;;;5.60;99.90;;;;;;7401826;19;20233;-68
2022/12/30 11:49:26;;;;;;;6.97;2.05;;;6.00;99.90;;;;;;7403409;19;19911;-68
2022/12/30 11:51:57;;;;;;;8.25;1.13;;;5.80;99.90;;;;;;7403317;19;20358;-68
2022/12/30 11:54:28;;;;;;;3.20;1.00;;;5.70;99.90;;;;;;7403382;19;19924;-68
2022/12/30 11:56:59;;;;;;;3.97;1.35;;;5.80;99.90;;;;;;7402629;19;19994;-68
2022/12/30 11:59:33;;;;;;;4.15;1.05;;;5.80;99.90;;;;;;7402569;19;20363;-68
2022/12/30 12:02:07;;;;;;;4.30;1.83;;;5.80;99.90;;;;;;7402289;19;19954;-68
2022/12/30 12:04:39;;;;;;;3.35;0.93;;;5.80;99.90;;;;;;7402381;19;19925;-68
2022/12/30 12:07:24;;;;;;;5.05;1.40;;;5.90;99.90;;;;;;7402558;19;19925;-68
2022/12/30 12:10:05;;;;;;;3.95;1.48;;;5.90;99.90;;;;;;7402228;19;19926;-67
2022/12/30 12:12:41;;;;;;;8.32;1.23;;;5.90;99.90;;;;;;7402330;19;19919;-67
2022/12/30 12:15:23;;;;;;;9.18;1.70;;;6.00;99.90;;;;;;7401934;19;20360;-68
2022/12/30 12:18:01;;;;;;;3.47;1.20;;;6.00;99.90;;;;;;7402365;19;19974;-68
2022/12/30 12:20:35;;;;;;;3.08;0.93;;;6.10;99.90;;;;;;7400250;19;19915;-68
2022/12/30 12:23:15;;;;;;;3.58;0.93;;;6.20;99.90;;;;;;7402142;19;19921;-68
2022/12/30 12:25:48;;;;;;;3.83;1.38;;;6.10;99.90;;;;;;7400807;19;19911;-68
2022/12/30 12:28:17;;;;;;;3.90;0.98;;;6.10;99.90;;;;;;7401383;19;20270;-68
2022/12/30 12:31:00;;;;;;;3.53;1.30;;;6.20;99.90;;;;;;7401770;19;20324;-68
2022/12/30 12:33:41;;;;;;;3.38;1.10;;;6.40;99.90;;;;;;7401057;19;19915;-68
2022/12/30 12:36:19;;;;;;;5.28;1.50;;;6.10;99.90;;;;;;7401360;19;19915;-67
2022/12/30 12:38:56;;;;;;;4.53;1.23;;;6.10;99.90;;;;;;7400257;19;20373;-67
2022/12/30 12:41:57;;;;;;;4.55;1.35;;;6.50;99.90;;;;;;7401156;19;20281;-67
2022/12/30 12:45:06;;;;;;;5.88;1.38;;;6.10;99.90;;;;;;7400169;19;19978;-68
2022/12/30 12:47:53;;;;;;;2.60;0.80;;;6.00;99.90;;;;;;7402142;19;20344;-68
2022/12/30 12:50:42;;;;;;;2.28;0.88;;;5.90;99.90;;;;;;7407772;19;20471;-68
2022/12/30 12:53:37;;;;;;;3.85;0.98;;;6.80;99.90;;;;;;7412194;19;20403;-67
2022/12/30 12:56:39;;;;;;;3.85;1.00;;;5.90;99.90;;;;;;7407852;19;19921;-68
2022/12/30 12:59:21;;;;;;;2.85;0.82;;;5.90;99.90;;;;;;7407621;19;19915;-68
2022/12/30 13:01:59;;;;;;;3.13;1.33;;;6.90;99.90;;;;;;7407331;19;19933;-68
2022/12/30 13:04:36;;;;;;;5.20;1.20;;;5.80;99.90;;;;;;7407474;19;19918;-68
2022/12/30 13:07:23;;;;;;;4.10;1.48;;;6.00;99.90;;;;;;7407172;19;19922;-67
2022/12/30 13:10:16;;;;;;;5.95;1.30;;;5.90;99.90;;;;;;7410358;19;19942;-67
2022/12/30 13:12:56;;;;;;;3.97;1.70;;;5.90;99.90;;;;;;7407403;19;19921;-68
2022/12/30 13:15:30;;;;;;;4.63;1.10;;;5.80;99.90;;;;;;7407603;19;20268;-68
2022/12/30 13:18:02;;;;;;;2.83;0.80;;;5.90;99.90;;;;;;7407419;19;19933;-68
2022/12/30 13:20:34;;;;;;;3.90;1.15;;;5.90;99.90;;;;;;7406887;19;19966;-67
2022/12/30 13:23:08;;;;;;;3.42;0.82;;;7.00;99.90;;;;;;7406908;19;19923;-68
2022/12/30 13:25:42;;;;;;;2.67;0.82;;;5.90;99.90;;;;;;7406065;19;20340;-67
2022/12/30 13:28:19;;;;;;;3.70;0.90;;;6.00;99.90;;;;;;7406465;19;19914;-68
2022/12/30 13:31:01;;;;;;;4.43;1.00;;;6.00;99.90;;;;;;7407010;19;19937;-68
2022/12/30 13:33:41;;;;;;;3.67;0.85;;;6.10;99.90;;;;;;7406299;19;19919;-68
2022/12/30 13:36:16;;;;;;;2.42;1.40;;;6.10;99.90;;;;;;7406893;19;20358;-68
2022/12/30 13:38:58;;;;;;;5.35;1.05;;;6.10;99.90;;;;;;7408255;19;19925;-68
2022/12/30 13:41:41;;;;;;;2.28;0.75;;;6.10;99.90;;;;;;7406483;19;20441;-68
2022/12/30 13:44:17;;;;;;;3.00;0.85;;;6.20;99.90;;;;;;7405147;19;19918;-68
2022/12/30 13:46:51;;;;;;;3.20;0.98;;;6.80;99.90;;;;;;7404607;19;20314;-68
2022/12/30 13:49:27;;;;;;;3.00;1.10;;;6.20;99.90;;;;;;7406436;19;19924;-68
2022/12/30 13:52:00;;;;;;;7.38;1.33;;;6.30;99.90;;;;;;7405817;19;19928;-68
2022/12/30 13:54:33;;;;;;;5.28;0.90;;;6.40;99.90;;;;;;7406134;19;20209;-68
2022/12/30 13:57:05;;;;;;;5.22;1.20;;;6.30;99.90;;;;;;7406523;19;19922;-68
2022/12/30 13:59:36;;;;;;;5.75;2.40;;;6.40;99.90;;;;;;7403916;19;19974;-67
2022/12/30 14:02:48;;;;;;;4.85;2.20;;;6.30;99.90;;;;;;7405695;19;19922;-68
2022/12/30 14:05:54;;;;;;;5.10;1.20;;;6.30;99.90;;;;;;7405536;19;19918;-67
2022/12/30 14:08:47;;;;;;;2.83;0.82;;;6.60;99.90;;;;;;7408731;19;19986;-67
2022/12/30 14:11:20;;;;;;;2.50;0.70;;;6.50;99.90;;;;;;7406542;19;19914;-67
2022/12/30 14:14:21;;;;;;;2.25;1.17;;;6.40;99.90;;;;;;7406042;19;19943;-67
2022/12/30 14:16:57;;;;;;;2.53;0.98;;;6.40;99.90;;;;;;7405024;19;19922;-68
2022/12/30 14:19:39;;;;;;;4.43;0.98;;;6.40;99.90;;;;;;7405693;19;19910;-67
2022/12/30 14:22:08;;;;;;;3.13;0.98;;;6.40;99.90;;;;;;7405473;19;19918;-68